< < Back
Terminal Aerodrome Forecast


Current Version              Previous Versions:   1  2  3  4  5  6  7  8  9  

Terminal Aerodrome Forecast

588
FTUS44 KMRX 311723
TAFCHA
TAF
KCHA 311723Z 3118/0118 04008KT P6SM BKN150
     FM010600 04005KT P6SM OVC100
     FM011000 04005KT P6SM SCT040 BKN100=

Latest METAR

431
SAUS80 KWBC 311900
MTRCHA
METAR KCHA 311853Z 36003KT 10SM FEW035 SCT150 BKN170 BKN250 26/16 A3010
RMK AO2 SLP185 T02560161


USA.gov is the U.S. government's official web portal to all federal, state and local government web resources and services.